Time;durP1;ratioP1;P1;durP2;ratioP2;P2;SDS_P1;SDS_P2;PMS_P1;PMS_P2;Temp;Humidity;BMP_temperature;BMP_pressure;BME280_temperature;BME280_humidity;BME280_pressure;Samples;Min_cycle;Max_cycle;Signal;HPM_P1;HPM_P2
2022/06/02 00:02:21;;;;;;;10.3;14.7;;;;;;;-133;86.7;65250;;;;
2022/06/02 00:13:21;;;;;;;9.8;14;;;;;;;-133;87.8;65250;;;;
2022/06/02 00:23:21;;;;;;;9.8;14;;;;;;;-133;87.1;65250;;;;
2022/06/02 00:34:21;;;;;;;9.8;14;;;;;;;-133;86.8;65250;;;;
2022/06/02 00:45:21;;;;;;;9;15.5;;;;;;;-133;86.7;65250;;;;
2022/06/02 01:06:23;;;;;;;9.7;11.2;;;;;;;-133;87.1;65250;;;;
2022/06/02 01:17:21;;;;;;;9.7;11.2;;;;;;;-133;87.6;65250;;;;
2022/06/02 01:28:22;;;;;;;9.7;11.2;;;;;;;-133;88.5;65250;;;;
2022/06/02 01:38:21;;;;;;;7.5;11.2;;;;;;;-133;89.7;65250;;;;
2022/06/02 01:49:21;;;;;;;7.5;11.2;;;;;;;-133;89.9;65250;;;;
2022/06/02 01:59:21;;;;;;;7.5;11.2;;;;;;;-133;89.7;65250;;;;
2022/06/02 02:10:21;;;;;;;5.9;7.7;;;;;;;-133;89.8;65250;;;;
2022/06/02 02:20:21;;;;;;;5.9;7.7;;;;;;;-133;89.3;65260;;;;
2022/06/02 02:30:23;;;;;;;5.9;7.7;;;;;;;-133;91.3;65250;;;;
2022/06/02 02:40:21;;;;;;;5.8;10.6;;;;;;;-133;92.9;65260;;;;
2022/06/02 02:51:21;;;;;;;5.8;10.6;;;;;;;-133;93.7;65250;;;;
2022/06/02 03:02:21;;;;;;;5.8;10.6;;;;;;;-133;94.2;65250;;;;
2022/06/02 03:12:21;;;;;;;4.4;6;;;;;;;-133;95.9;65250;;;;
2022/06/02 03:23:22;;;;;;;4.4;6;;;;;;;-133;96.1;65250;;;;
2022/06/02 03:34:21;;;;;;;4.4;6;;;;;;;-133;96.7;65250;;;;
2022/06/02 03:45:22;;;;;;;5.9;11;;;;;;;-133;97.9;65250;;;;
2022/06/02 03:55:22;;;;;;;5.9;11;;;;;;;-133;99.3;65250;;;;
2022/06/02 04:05:21;;;;;;;5;6.5;;;;;;;-133;98.8;65250;;;;
2022/06/02 04:16:21;;;;;;;5;6.5;;;;;;;-133;99.5;65250;;;;
2022/06/02 04:27:23;;;;;;;5;6.5;;;;;;;-133;99;65250;;;;
2022/06/02 04:37:21;;;;;;;5.2;6.7;;;;;;;-133;99.7;65250;;;;
2022/06/02 04:47:22;;;;;;;5.2;6.7;;;;;;;-133;99.7;65250;;;;
2022/06/02 04:57:21;;;;;;;5.2;6.7;;;;;;;-133;98.9;65250;;;;
2022/06/02 05:07:22;;;;;;;5.1;7;;;;;;;-133;99.4;65250;;;;
2022/06/02 05:18:22;;;;;;;5.1;7;;;;;;;-133;99.9;65250;;;;
2022/06/02 05:28:22;;;;;;;5.1;7;;;;;;;-133;99.7;65250;;;;
2022/06/02 05:38:22;;;;;;;4.7;6.3;;;;;;;-133;98.1;65250;;;;
2022/06/02 05:48:24;;;;;;;4.7;6.3;;;;;;;-133;96.4;65250;;;;
2022/06/02 05:59:22;;;;;;;4.7;6.3;;;;;;;-133;95.5;65240;;;;
2022/06/02 06:09:21;;;;;;;3.3;5.7;;;;;;;-133;92.1;65240;;;;
2022/06/02 06:20:21;;;;;;;3.3;5.7;;;;;;;-133;88.7;65240;;;;
2022/06/02 06:30:21;;;;;;;3.3;5.7;;;;;;;-133;89.3;65240;;;;
2022/06/02 06:40:21;;;;;;;2.6;5.4;;;;;;;-133;85.3;65240;;;;
2022/06/02 06:50:22;;;;;;;2.6;5.4;;;;;;;-133;82.9;65230;;;;
2022/06/02 07:01:22;;;;;;;2.6;5.4;;;;;;;-133;79.8;65230;;;;
2022/06/02 07:12:53;;;;;;;2.7;4.5;;;;;;;-133;78;65230;;;;
2022/06/02 07:23:22;;;;;;;2.7;4.5;;;;;;;-133;78.1;65230;;;;
2022/06/02 07:34:22;;;;;;;2.7;4.5;;;;;;;-133;78.7;65230;;;;
2022/06/02 07:44:23;;;;;;;2.6;4.3;;;;;;;-133;76.8;65230;;;;
2022/06/02 07:55:22;;;;;;;2.6;4.3;;;;;;;-133;74.2;65220;;;;
2022/06/02 08:06:22;;;;;;;3.2;5.4;;;;;;;-133;72.8;65230;;;;
2022/06/02 08:16:22;;;;;;;3.2;5.4;;;;;;;-133;70.4;65220;;;;
2022/06/02 08:26:22;;;;;;;3.2;5.4;;;;;;;-133;69.8;65230;;;;
2022/06/02 08:36:22;;;;;;;3.3;5.6;;;;;;;-133;70.7;65230;;;;
2022/06/02 08:47:22;;;;;;;3.3;5.6;;;;;;;-133;66.8;65220;;;;
2022/06/02 08:58:22;;;;;;;3.3;5.6;;;;;;;-133;68.4;65230;;;;
2022/06/02 09:08:22;;;;;;;3.2;6.7;;;;;;;-133;69.7;65230;;;;
2022/06/02 09:19:25;;;;;;;3.2;6.7;;;;;;;-133;65.5;65220;;;;
2022/06/02 09:30:22;;;;;;;3.2;6.7;;;;;;;-133;64.2;65220;;;;
2022/06/02 09:41:22;;;;;;;3.3;6;;;;;;;-133;63;65220;;;;
2022/06/02 09:51:22;;;;;;;3.3;6;;;;;;;-133;64;65220;;;;
2022/06/02 10:01:22;;;;;;;3.3;6;;;;;;;-133;61.3;65230;;;;
2022/06/02 10:13:26;;;;;;;3.4;5.4;;;;;;;-133;64.5;65230;;;;
2022/06/02 10:22:22;;;;;;;3.4;5.4;;;;;;;-133;62.6;65230;;;;
2022/06/02 10:32:22;;;;;;;3.4;5.4;;;;;;;-133;61;65220;;;;
2022/06/02 10:43:22;;;;;;;4.9;7.2;;;;;;;-133;59.6;65220;;;;
2022/06/02 10:54:22;;;;;;;4.9;7.2;;;;;;;-133;59.7;65220;;;;
2022/06/02 11:04:22;;;;;;;4.9;7.2;;;;;;;-133;56.8;65230;;;;
2022/06/02 11:14:22;;;;;;;5.6;8.6;;;;;;;-133;54.8;65220;;;;
2022/06/02 11:24:22;;;;;;;5.6;8.6;;;;;;;-133;56.1;65220;;;;
2022/06/02 11:34:22;;;;;;;5.6;8.6;;;;;;;-133;55.8;65220;;;;
2022/06/02 11:45:22;;;;;;;5.7;8.1;;;;;;;-133;53.4;65220;;;;
2022/06/02 11:55:22;;;;;;;5.7;8.1;;;;;;;-133;54.8;65220;;;;
2022/06/02 12:06:22;;;;;;;5.2;7.4;;;;;;;-133;54.1;65220;;;;
2022/06/02 12:16:22;;;;;;;5.2;7.4;;;;;;;-133;47.5;65230;;;;
2022/06/02 12:27:22;;;;;;;5.2;7.4;;;;;;;-133;48;65220;;;;
2022/06/02 12:38:22;;;;;;;3.1;5.3;;;;;;;-133;48.1;65220;;;;
2022/06/02 12:49:22;;;;;;;3.1;5.3;;;;;;;-133;45.5;65230;;;;
2022/06/02 13:00:22;;;;;;;3.1;5.3;;;;;;;-133;47;65220;;;;
2022/06/02 13:10:22;;;;;;;2.7;5.4;;;;;;;-133;46.5;65220;;;;
2022/06/02 13:20:22;;;;;;;2.7;5.4;;;;;;;-133;47.5;65220;;;;
2022/06/02 13:30:22;;;;;;;2.7;5.4;;;;;;;-133;45.8;65220;;;;
2022/06/02 13:40:22;;;;;;;3.3;6.7;;;;;;;-133;44.3;65220;;;;
2022/06/02 13:50:22;;;;;;;3.3;6.7;;;;;;;-133;43.5;65220;;;;
2022/06/02 14:01:22;;;;;;;3.3;6.7;;;;;;;-133;44.4;65220;;;;
2022/06/02 14:11:22;;;;;;;2.6;4.3;;;;;;;-133;43.9;65220;;;;
2022/06/02 14:21:22;;;;;;;2.6;4.3;;;;;;;-133;43.3;65220;;;;
2022/06/02 14:32:22;;;;;;;2.6;4.3;;;;;;;-133;42.4;65220;;;;
2022/06/02 14:42:23;;;;;;;2.1;4.2;;;;;;;-133;40.7;65220;;;;
2022/06/02 14:53:22;;;;;;;2.1;4.2;;;;;;;-133;39.6;65220;;;;
2022/06/02 15:03:22;;;;;;;2.1;4.2;;;;;;;-133;36.9;65220;;;;
2022/06/02 15:13:22;;;;;;;2.3;4.5;;;;;;;-133;32.9;65220;;;;
2022/06/02 15:23:22;;;;;;;2.3;4.5;;;;;;;-133;30.2;65220;;;;
2022/06/02 15:33:22;;;;;;;2.3;4.5;;;;;;;-133;29.8;65220;;;;
2022/06/02 15:44:22;;;;;;;2;4;;;;;;;-133;29.1;65220;;;;
2022/06/02 15:54:22;;;;;;;2;4;;;;;;;-133;30.4;65220;;;;
2022/06/02 16:05:22;;;;;;;2;4;;;;;;;-133;35.6;65220;;;;
2022/06/02 16:15:22;;;;;;;1.6;3.5;;;;;;;-133;34.3;65220;;;;
2022/06/02 16:25:22;;;;;;;1.6;3.5;;;;;;;-133;35.4;65220;;;;
2022/06/02 16:35:22;;;;;;;1.6;3.5;;;;;;;-133;38.6;65220;;;;
2022/06/02 16:46:22;;;;;;;2.2;4.3;;;;;;;-133;39.3;65230;;;;
2022/06/02 16:56:22;;;;;;;2.2;4.3;;;;;;;-133;39.3;65230;;;;
2022/06/02 17:06:22;;;;;;;2.4;5.1;;;;;;;-133;38.9;65230;;;;
2022/06/02 17:17:22;;;;;;;2.4;5.1;;;;;;;-133;41.3;65230;;;;
2022/06/02 17:27:22;;;;;;;2.4;5.1;;;;;;;-133;41.3;65230;;;;
2022/06/02 17:37:22;;;;;;;2.3;4.9;;;;;;;-133;37.7;65230;;;;
2022/06/02 17:48:23;;;;;;;2.3;4.9;;;;;;;-133;33;65230;;;;
2022/06/02 17:58:22;;;;;;;2.3;4.9;;;;;;;-133;31.7;65230;;;;
2022/06/02 18:09:22;;;;;;;5.7;10.1;;;;;;;-133;35.7;65230;;;;
2022/06/02 18:20:22;;;;;;;5.7;10.1;;;;;;;-133;40.1;65240;;;;
2022/06/02 18:30:22;;;;;;;5.7;10.1;;;;;;;-133;43.3;65230;;;;
2022/06/02 18:40:23;;;;;;;8.4;10.2;;;;;;;-133;44.2;65240;;;;
2022/06/02 18:51:22;;;;;;;8.4;10.2;;;;;;;-133;47.4;65240;;;;
2022/06/02 19:01:22;;;;;;;8.4;10.2;;;;;;;-133;50.7;65240;;;;
2022/06/02 19:22:22;;;;;;;6.5;11.9;;;;;;;-133;55.2;65240;;;;
2022/06/02 19:33:23;;;;;;;6.5;11.9;;;;;;;-133;57.8;65240;;;;
2022/06/02 19:43:22;;;;;;;2.4;5.3;;;;;;;-133;58.8;65250;;;;
2022/06/02 19:53:22;;;;;;;2.4;5.3;;;;;;;-133;61.7;65250;;;;
2022/06/02 20:04:22;;;;;;;2.4;5.3;;;;;;;-133;62.5;65240;;;;
2022/06/02 20:14:22;;;;;;;2;4.5;;;;;;;-133;62.8;65240;;;;
2022/06/02 20:24:22;;;;;;;2;4.5;;;;;;;-133;64.2;65240;;;;
2022/06/02 20:35:22;;;;;;;2;4.5;;;;;;;-133;63.7;65240;;;;
2022/06/02 20:45:23;;;;;;;1.9;3.8;;;;;;;-133;64;65240;;;;
2022/06/02 20:56:22;;;;;;;1.9;3.8;;;;;;;-133;65.3;65250;;;;
2022/06/02 21:07:22;;;;;;;2.5;5.9;;;;;;;-133;68.2;65250;;;;
2022/06/02 21:17:22;;;;;;;2.5;5.9;;;;;;;-133;69;65240;;;;
2022/06/02 21:27:22;;;;;;;2.5;5.9;;;;;;;-133;70.4;65250;;;;
2022/06/02 21:38:22;;;;;;;3.3;6.1;;;;;;;-133;72;65250;;;;
2022/06/02 21:49:22;;;;;;;3.3;6.1;;;;;;;-133;74.9;65250;;;;
2022/06/02 21:59:22;;;;;;;3.3;6.1;;;;;;;-133;74.9;65250;;;;
2022/06/02 22:10:22;;;;;;;3;5.1;;;;;;;-133;76.2;65250;;;;
2022/06/02 22:20:22;;;;;;;3;5.1;;;;;;;-133;77.9;65250;;;;
2022/06/02 22:30:22;;;;;;;3;5.1;;;;;;;-133;81.7;65250;;;;
2022/06/02 22:40:22;;;;;;;3.2;5.3;;;;;;;-133;80.5;65250;;;;
2022/06/02 22:50:22;;;;;;;3.2;5.3;;;;;;;-133;81.6;65260;;;;
2022/06/02 23:01:22;;;;;;;3.2;5.3;;;;;;;-133;80.8;65250;;;;
2022/06/02 23:11:22;;;;;;;3.7;6.2;;;;;;;-133;81.1;65260;;;;
2022/06/02 23:22:22;;;;;;;3.7;6.2;;;;;;;-133;83;65260;;;;
2022/06/02 23:32:22;;;;;;;3.7;6.2;;;;;;;-133;83.4;65260;;;;
2022/06/02 23:44:26;;;;;;;3.2;8.2;;;;;;;-133;84.6;65260;;;;
2022/06/02 23:54:22;;;;;;;3.2;8.2;;;;;;;-133;85.7;65260;;;;
